Terminal Aerodrome Forecast
Issued by NWS

Home | Current Version | Previous Version | Text Only | Print | Product List | Glossary On
Versions: 1 2 3 4 5 6 7 8 9 10 11 12 13 14 15 16 17 18 19 20 21 22 23 24
000
FTUS42 KGSP 231723
TAFHKY
TAF
KHKY 231723Z 2318/2418 34004KT P6SM SKC
     FM241200 32003KT P6SM SCT180
     FM241600 28003KT P6SM SCT180=

USA.gov is the U.S. government's official web portal to all federal, state and local government web resources and services.